sensor_id;sensor_type;location;lat;lon;timestamp;pressure;altitude;pressure_sealevel;temperature;humidity
64616;BME280;51027;42.162;24.754;2024-03-17T04:31:42;100079.41;;;6.92;100.00
64616;BME280;51027;42.162;24.754;2024-03-17T04:34:09;100112.25;;;7.10;100.00
64616;BME280;51027;42.162;24.754;2024-03-17T04:36:38;100111.66;;;6.96;100.00
64616;BME280;51027;42.162;24.754;2024-03-17T04:39:04;100116.66;;;7.08;100.00
64616;BME280;51027;42.162;24.754;2024-03-17T04:41:34;100129.00;;;7.01;100.00
64616;BME280;51027;42.162;24.754;2024-03-17T04:44:02;100128.13;;;7.01;100.00
64616;BME280;51027;42.162;24.754;2024-03-17T04:46:32;100129.78;;;7.06;100.00
64616;BME280;51027;42.162;24.754;2024-03-17T04:48:58;100129.94;;;6.97;100.00
64616;BME280;51027;42.162;24.754;2024-03-17T04:51:24;100132.41;;;7.05;100.00
64616;BME280;51027;42.162;24.754;2024-03-17T04:53:50;100136.75;;;7.07;100.00
64616;BME280;51027;42.162;24.754;2024-03-17T04:56:17;100141.94;;;7.10;100.00
64616;BME280;51027;42.162;24.754;2024-03-17T04:58:45;100140.25;;;7.05;100.00
64616;BME280;51027;42.162;24.754;2024-03-17T05:01:11;100141.00;;;7.13;100.00
64616;BME280;51027;42.162;24.754;2024-03-17T05:03:39;100151.25;;;7.27;100.00
64616;BME280;51027;42.162;24.754;2024-03-17T05:06:06;100151.28;;;7.23;100.00
64616;BME280;51027;42.162;24.754;2024-03-17T05:08:34;100151.66;;;7.02;100.00
64616;BME280;51027;42.162;24.754;2024-03-17T05:11:02;100143.06;;;6.96;100.00
64616;BME280;51027;42.162;24.754;2024-03-17T05:13:33;100156.88;;;7.04;100.00
64616;BME280;51027;42.162;24.754;2024-03-17T05:16:00;100151.63;;;7.05;100.00
64616;BME280;51027;42.162;24.754;2024-03-17T05:18:27;100155.00;;;7.12;100.00
64616;BME280;51027;42.162;24.754;2024-03-17T05:20:59;100164.19;;;7.36;100.00
64616;BME280;51027;42.162;24.754;2024-03-17T05:23:33;100146.84;;;7.29;100.00
64616;BME280;51027;42.162;24.754;2024-03-17T05:26:03;100165.03;;;7.35;100.00
64616;BME280;51027;42.162;24.754;2024-03-17T05:28:33;100164.66;;;7.55;100.00
64616;BME280;51027;42.162;24.754;2024-03-17T05:31:02;100163.25;;;7.38;100.00
64616;BME280;51027;42.162;24.754;2024-03-17T05:33:32;100170.59;;;7.64;100.00
64616;BME280;51027;42.162;24.754;2024-03-17T05:36:02;100174.72;;;7.76;100.00
64616;BME280;51027;42.162;24.754;2024-03-17T05:38:30;100157.06;;;7.86;100.00
64616;BME280;51027;42.162;24.754;2024-03-17T05:41:01;100176.94;;;7.97;100.00
64616;BME280;51027;42.162;24.754;2024-03-17T05:43:29;100162.81;;;8.03;100.00
64616;BME280;51027;42.162;24.754;2024-03-17T05:46:09;100179.19;;;8.14;100.00
64616;BME280;51027;42.162;24.754;2024-03-17T05:48:37;100176.19;;;8.32;100.00
64616;BME280;51027;42.162;24.754;2024-03-17T05:51:07;100181.28;;;8.40;100.00
64616;BME280;51027;42.162;24.754;2024-03-17T05:53:38;100176.13;;;8.34;100.00
64616;BME280;51027;42.162;24.754;2024-03-17T05:56:12;100181.22;;;8.43;100.00
64616;BME280;51027;42.162;24.754;2024-03-17T05:58:42;100181.75;;;8.57;100.00
64616;BME280;51027;42.162;24.754;2024-03-17T06:01:10;100169.88;;;8.78;100.00
64616;BME280;51027;42.162;24.754;2024-03-17T06:03:36;100183.59;;;8.91;100.00
64616;BME280;51027;42.162;24.754;2024-03-17T06:06:04;100180.66;;;9.03;100.00
64616;BME280;51027;42.162;24.754;2024-03-17T06:08:34;100192.09;;;9.35;100.00
64616;BME280;51027;42.162;24.754;2024-03-17T06:11:06;100183.66;;;9.56;100.00
64616;BME280;51027;42.162;24.754;2024-03-17T06:13:32;100201.34;;;9.51;100.00
64616;BME280;51027;42.162;24.754;2024-03-17T06:15:57;100193.53;;;9.79;100.00
64616;BME280;51027;42.162;24.754;2024-03-17T06:18:26;100178.81;;;9.41;100.00
64616;BME280;51027;42.162;24.754;2024-03-17T06:20:52;100193.28;;;9.88;100.00
64616;BME280;51027;42.162;24.754;2024-03-17T06:23:17;100194.31;;;10.14;100.00
64616;BME280;51027;42.162;24.754;2024-03-17T06:25:45;100200.78;;;10.33;100.00
64616;BME280;51027;42.162;24.754;2024-03-17T06:28:12;100190.75;;;10.15;100.00
64616;BME280;51027;42.162;24.754;2024-03-17T06:30:55;100200.44;;;10.14;100.00
64616;BME280;51027;42.162;24.754;2024-03-17T06:33:24;100197.47;;;10.26;100.00
64616;BME280;51027;42.162;24.754;2024-03-17T06:35:50;100189.94;;;10.13;100.00
64616;BME280;51027;42.162;24.754;2024-03-17T06:38:16;100190.53;;;10.24;100.00
64616;BME280;51027;42.162;24.754;2024-03-17T06:40:47;100208.03;;;10.25;100.00
64616;BME280;51027;42.162;24.754;2024-03-17T06:43:12;100217.66;;;10.26;100.00
64616;BME280;51027;42.162;24.754;2024-03-17T06:45:38;100211.53;;;10.25;100.00
64616;BME280;51027;42.162;24.754;2024-03-17T06:48:03;100205.09;;;10.35;100.00
64616;BME280;51027;42.162;24.754;2024-03-17T06:50:29;100203.50;;;10.30;100.00
64616;BME280;51027;42.162;24.754;2024-03-17T06:52:54;100209.94;;;10.18;100.00
64616;BME280;51027;42.162;24.754;2024-03-17T06:55:20;100200.69;;;10.36;100.00
64616;BME280;51027;42.162;24.754;2024-03-17T06:57:50;100220.19;;;10.58;100.00
64616;BME280;51027;42.162;24.754;2024-03-17T07:00:16;100203.78;;;10.49;100.00
64616;BME280;51027;42.162;24.754;2024-03-17T07:02:43;100214.09;;;10.56;100.00
64616;BME280;51027;42.162;24.754;2024-03-17T07:05:15;100216.47;;;10.92;100.00
64616;BME280;51027;42.162;24.754;2024-03-17T07:07:41;100206.56;;;10.72;100.00
64616;BME280;51027;42.162;24.754;2024-03-17T07:10:07;100205.88;;;10.95;100.00
64616;BME280;51027;42.162;24.754;2024-03-17T07:12:33;100221.03;;;11.15;100.00
64616;BME280;51027;42.162;24.754;2024-03-17T07:14:59;100217.03;;;11.02;100.00
64616;BME280;51027;42.162;24.754;2024-03-17T07:17:24;100223.75;;;11.12;100.00
64616;BME280;51027;42.162;24.754;2024-03-17T07:19:50;100212.75;;;11.25;100.00
64616;BME280;51027;42.162;24.754;2024-03-17T07:22:16;100218.16;;;11.47;100.00
64616;BME280;51027;42.162;24.754;2024-03-17T07:24:41;100213.25;;;11.62;100.00
64616;BME280;51027;42.162;24.754;2024-03-17T07:27:09;100215.47;;;11.49;100.00
64616;BME280;51027;42.162;24.754;2024-03-17T07:29:39;100222.53;;;11.22;100.00
64616;BME280;51027;42.162;24.754;2024-03-17T07:32:04;100203.31;;;11.45;100.00
64616;BME280;51027;42.162;24.754;2024-03-17T07:34:31;100202.22;;;11.50;100.00
64616;BME280;51027;42.162;24.754;2024-03-17T07:36:56;100209.25;;;11.75;100.00
64616;BME280;51027;42.162;24.754;2024-03-17T07:39:22;100226.03;;;11.99;100.00
64616;BME280;51027;42.162;24.754;2024-03-17T07:41:47;100206.75;;;11.47;100.00
64616;BME280;51027;42.162;24.754;2024-03-17T07:44:13;100224.13;;;11.77;100.00
64616;BME280;51027;42.162;24.754;2024-03-17T07:46:38;100215.09;;;11.85;100.00
64616;BME280;51027;42.162;24.754;2024-03-17T07:49:03;100220.44;;;11.83;100.00
64616;BME280;51027;42.162;24.754;2024-03-17T07:51:29;100225.38;;;11.67;99.24
64616;BME280;51027;42.162;24.754;2024-03-17T07:53:54;100209.31;;;11.48;98.33
64616;BME280;51027;42.162;24.754;2024-03-17T07:56:20;100220.16;;;11.66;97.45
64616;BME280;51027;42.162;24.754;2024-03-17T07:58:46;100193.03;;;11.87;95.73
64616;BME280;51027;42.162;24.754;2024-03-17T08:01:14;100214.69;;;11.97;94.14
64616;BME280;51027;42.162;24.754;2024-03-17T08:03:42;100211.66;;;11.82;95.91
64616;BME280;51027;42.162;24.754;2024-03-17T08:06:09;100204.59;;;11.58;95.71
64616;BME280;51027;42.162;24.754;2024-03-17T08:08:36;100202.28;;;11.99;93.87
64616;BME280;51027;42.162;24.754;2024-03-17T08:11:02;100202.22;;;12.00;93.27
64616;BME280;51027;42.162;24.754;2024-03-17T08:13:31;100205.66;;;12.02;93.34
64616;BME280;51027;42.162;24.754;2024-03-17T08:16:04;100179.59;;;11.93;93.48
64616;BME280;51027;42.162;24.754;2024-03-17T08:18:37;100208.81;;;12.35;92.70
64616;BME280;51027;42.162;24.754;2024-03-17T08:21:03;100206.75;;;12.20;92.62
64616;BME280;51027;42.162;24.754;2024-03-17T08:23:32;100195.97;;;12.03;92.47
64616;BME280;51027;42.162;24.754;2024-03-17T08:25:59;100195.16;;;12.24;91.59
64616;BME280;51027;42.162;24.754;2024-03-17T08:28:26;100200.88;;;12.59;90.78
64616;BME280;51027;42.162;24.754;2024-03-17T08:31:00;100124.41;;;11.62;91.77
64616;BME280;51027;42.162;24.754;2024-03-17T08:33:26;100194.38;;;12.44;90.74
64616;BME280;51027;42.162;24.754;2024-03-17T08:35:59;100199.06;;;13.25;87.49
64616;BME280;51027;42.162;24.754;2024-03-17T08:38:26;100187.50;;;13.27;87.00
64616;BME280;51027;42.162;24.754;2024-03-17T08:40:54;100193.63;;;13.50;85.15
64616;BME280;51027;42.162;24.754;2024-03-17T08:43:20;100175.72;;;13.55;83.93
64616;BME280;51027;42.162;24.754;2024-03-17T08:46:01;100180.69;;;15.48;77.49
64616;BME280;51027;42.162;24.754;2024-03-17T08:48:29;100157.91;;;15.61;74.90
64616;BME280;51027;42.162;24.754;2024-03-17T08:50:56;100177.69;;;14.85;76.67
64616;BME280;51027;42.162;24.754;2024-03-17T08:53:22;100177.72;;;15.54;75.57
64616;BME280;51027;42.162;24.754;2024-03-17T08:55:48;100173.03;;;15.59;74.04
64616;BME280;51027;42.162;24.754;2024-03-17T08:58:14;100169.22;;;15.13;74.70
64616;BME280;51027;42.162;24.754;2024-03-17T09:00:40;100170.00;;;15.15;74.74
64616;BME280;51027;42.162;24.754;2024-03-17T09:03:06;100162.81;;;15.17;75.12
64616;BME280;51027;42.162;24.754;2024-03-17T09:05:35;100164.34;;;14.86;75.92
64616;BME280;51027;42.162;24.754;2024-03-17T09:08:01;100149.59;;;17.11;68.65
64616;BME280;51027;42.162;24.754;2024-03-17T09:10:27;100137.28;;;16.62;68.12
64616;BME280;51027;42.162;24.754;2024-03-17T09:12:53;100148.84;;;17.23;66.85
64616;BME280;51027;42.162;24.754;2024-03-17T09:15:18;100144.78;;;19.66;59.21
64616;BME280;51027;42.162;24.754;2024-03-17T09:17:43;100121.28;;;16.94;65.37
64616;BME280;51027;42.162;24.754;2024-03-17T09:20:11;100138.84;;;16.35;67.96
64616;BME280;51027;42.162;24.754;2024-03-17T09:22:39;100136.16;;;16.82;68.20
64616;BME280;51027;42.162;24.754;2024-03-17T09:25:06;100134.38;;;17.57;65.37
64616;BME280;51027;42.162;24.754;2024-03-17T09:27:35;100141.94;;;17.05;66.19
64616;BME280;51027;42.162;24.754;2024-03-17T09:30:04;100146.03;;;16.64;67.15
64616;BME280;51027;42.162;24.754;2024-03-17T09:32:36;100132.16;;;17.35;65.63
64616;BME280;51027;42.162;24.754;2024-03-17T09:35:02;100129.38;;;17.95;62.19
64616;BME280;51027;42.162;24.754;2024-03-17T09:37:28;100121.28;;;17.82;63.60
64616;BME280;51027;42.162;24.754;2024-03-17T09:39:56;100128.09;;;18.29;62.04
64616;BME280;51027;42.162;24.754;2024-03-17T09:42:22;100112.28;;;19.72;59.74
64616;BME280;51027;42.162;24.754;2024-03-17T09:44:50;100131.06;;;18.93;61.51
64616;BME280;51027;42.162;24.754;2024-03-17T09:47:20;100119.91;;;19.26;60.49
64616;BME280;51027;42.162;24.754;2024-03-17T09:49:49;100126.44;;;19.22;60.11
64616;BME280;51027;42.162;24.754;2024-03-17T09:52:23;100120.50;;;19.56;58.76
64616;BME280;51027;42.162;24.754;2024-03-17T09:54:56;100112.94;;;20.86;54.65
64616;BME280;51027;42.162;24.754;2024-03-17T09:57:23;100116.78;;;20.21;55.81
64616;BME280;51027;42.162;24.754;2024-03-17T09:59:53;100104.75;;;19.14;59.03
64616;BME280;51027;42.162;24.754;2024-03-17T10:02:19;100099.22;;;18.63;60.51
64616;BME280;51027;42.162;24.754;2024-03-17T10:04:45;100097.25;;;20.92;55.11
64616;BME280;51027;42.162;24.754;2024-03-17T10:07:10;100097.63;;;20.88;53.83
64616;BME280;51027;42.162;24.754;2024-03-17T10:09:36;100107.16;;;21.27;53.12
64616;BME280;51027;42.162;24.754;2024-03-17T10:12:02;100100.31;;;20.64;54.32
64616;BME280;51027;42.162;24.754;2024-03-17T10:14:28;100097.84;;;19.75;57.52
64616;BME280;51027;42.162;24.754;2024-03-17T10:16:53;100093.31;;;20.74;56.20
64616;BME280;51027;42.162;24.754;2024-03-17T10:21:49;100093.84;;;20.90;54.25
64616;BME280;51027;42.162;24.754;2024-03-17T10:24:22;100076.16;;;20.77;53.43
64616;BME280;51027;42.162;24.754;2024-03-17T10:26:58;100085.09;;;20.28;54.82
64616;BME280;51027;42.162;24.754;2024-03-17T10:29:25;100091.78;;;20.94;53.66
64616;BME280;51027;42.162;24.754;2024-03-17T10:31:55;100075.41;;;21.56;50.91
64616;BME280;51027;42.162;24.754;2024-03-17T10:34:24;100076.94;;;20.90;53.35
64616;BME280;51027;42.162;24.754;2024-03-17T10:37:15;100079.66;;;22.14;50.58
64616;BME280;51027;42.162;24.754;2024-03-17T10:39:42;100074.81;;;22.20;49.32
64616;BME280;51027;42.162;24.754;2024-03-17T10:42:09;100064.69;;;21.78;50.06
64616;BME280;51027;42.162;24.754;2024-03-17T10:44:39;100064.06;;;22.20;49.66
64616;BME280;51027;42.162;24.754;2024-03-17T10:47:06;100049.50;;;22.33;49.34
64616;BME280;51027;42.162;24.754;2024-03-17T10:49:35;100063.88;;;22.43;49.37
64616;BME280;51027;42.162;24.754;2024-03-17T10:52:05;100062.13;;;20.12;53.98
64616;BME280;51027;42.162;24.754;2024-03-17T10:54:32;100059.38;;;20.14;54.83
64616;BME280;51027;42.162;24.754;2024-03-17T10:57:22;100055.41;;;19.70;55.70
64616;BME280;51027;42.162;24.754;2024-03-17T10:59:52;100056.25;;;19.33;56.81
64616;BME280;51027;42.162;24.754;2024-03-17T11:02:21;100047.50;;;21.70;51.92
64616;BME280;51027;42.162;24.754;2024-03-17T11:04:55;100042.44;;;22.64;49.58
64616;BME280;51027;42.162;24.754;2024-03-17T11:07:21;100038.97;;;23.88;46.87
64616;BME280;51027;42.162;24.754;2024-03-17T11:09:48;100043.47;;;23.77;45.85
64616;BME280;51027;42.162;24.754;2024-03-17T11:15:35;100018.94;;;22.78;46.14
64616;BME280;51027;42.162;24.754;2024-03-17T11:20:33;100029.75;;;23.19;45.26
64616;BME280;51027;42.162;24.754;2024-03-17T11:22:59;100014.41;;;23.10;45.42
64616;BME280;51027;42.162;24.754;2024-03-17T11:28:02;100008.94;;;23.73;44.87
64616;BME280;51027;42.162;24.754;2024-03-17T11:39:01;100003.72;;;23.91;43.83
64616;BME280;51027;42.162;24.754;2024-03-17T11:47:05;99998.84;;;22.08;46.35
64616;BME280;51027;42.162;24.754;2024-03-17T11:52:04;99986.44;;;21.17;47.56
64616;BME280;51027;42.162;24.754;2024-03-17T11:54:34;99971.44;;;21.82;46.76
64616;BME280;51027;42.162;24.754;2024-03-17T11:57:04;99960.56;;;22.38;46.02
64616;BME280;51027;42.162;24.754;2024-03-17T11:59:33;99978.50;;;21.16;46.91
64616;BME280;51027;42.162;24.754;2024-03-17T12:01:59;99960.25;;;21.21;47.81
64616;BME280;51027;42.162;24.754;2024-03-17T12:04:25;99969.50;;;22.59;44.60
64616;BME280;51027;42.162;24.754;2024-03-17T12:06:59;99960.13;;;23.87;42.39
64616;BME280;51027;42.162;24.754;2024-03-17T12:12:10;99959.91;;;21.37;46.45
64616;BME280;51027;42.162;24.754;2024-03-17T12:14:37;99958.31;;;20.54;47.48
64616;BME280;51027;42.162;24.754;2024-03-17T12:17:06;99941.94;;;21.82;45.43
64616;BME280;51027;42.162;24.754;2024-03-17T12:19:32;99940.66;;;21.32;44.92
64616;BME280;51027;42.162;24.754;2024-03-17T12:21:59;99959.22;;;22.00;43.14
64616;BME280;51027;42.162;24.754;2024-03-17T12:24:29;99964.00;;;23.03;41.05
64616;BME280;51027;42.162;24.754;2024-03-17T12:26:56;99957.25;;;22.02;42.04
64616;BME280;51027;42.162;24.754;2024-03-17T12:31:54;99941.53;;;22.09;41.47
64616;BME280;51027;42.162;24.754;2024-03-17T12:34:21;99948.94;;;22.49;41.08
64616;BME280;51027;42.162;24.754;2024-03-17T12:36:48;99949.66;;;21.19;41.75
64616;BME280;51027;42.162;24.754;2024-03-17T12:39:23;99930.13;;;18.91;44.43
64616;BME280;51027;42.162;24.754;2024-03-17T12:44:31;99933.13;;;22.55;39.77
64616;BME280;51027;42.162;24.754;2024-03-17T12:47:02;99921.34;;;23.09;38.10
64616;BME280;51027;42.162;24.754;2024-03-17T12:49:32;99920.00;;;22.94;38.34
64616;BME280;51027;42.162;24.754;2024-03-17T12:52:00;99911.97;;;23.84;35.90
64616;BME280;51027;42.162;24.754;2024-03-17T12:54:27;99908.16;;;24.64;34.33
64616;BME280;51027;42.162;24.754;2024-03-17T12:57:12;99924.19;;;24.27;33.06
64616;BME280;51027;42.162;24.754;2024-03-17T12:59:57;99920.06;;;23.94;31.94
64616;BME280;51027;42.162;24.754;2024-03-17T13:02:44;99894.28;;;24.10;32.20
64616;BME280;51027;42.162;24.754;2024-03-17T13:05:17;99898.03;;;25.05;31.93
64616;BME280;51027;42.162;24.754;2024-03-17T13:07:44;99908.19;;;21.79;35.66
64616;BME280;51027;42.162;24.754;2024-03-17T13:10:16;99897.44;;;19.49;38.79
64616;BME280;51027;42.162;24.754;2024-03-17T13:12:42;99893.84;;;21.69;34.38
64616;BME280;51027;42.162;24.754;2024-03-17T13:15:15;99891.09;;;22.86;30.65
64616;BME280;51027;42.162;24.754;2024-03-17T13:17:42;99873.72;;;23.90;30.01
64616;BME280;51027;42.162;24.754;2024-03-17T13:20:12;99886.75;;;23.66;31.20
64616;BME280;51027;42.162;24.754;2024-03-17T13:22:38;99875.72;;;21.94;32.52
64616;BME280;51027;42.162;24.754;2024-03-17T13:25:08;99870.94;;;20.53;35.77
64616;BME280;51027;42.162;24.754;2024-03-17T13:27:34;99877.44;;;19.55;37.55
64616;BME280;51027;42.162;24.754;2024-03-17T13:29:59;99864.78;;;19.70;37.69
64616;BME280;51027;42.162;24.754;2024-03-17T13:32:28;99856.03;;;19.68;37.80
64616;BME280;51027;42.162;24.754;2024-03-17T13:34:53;99873.13;;;19.41;38.50
64616;BME280;51027;42.162;24.754;2024-03-17T13:37:19;99888.06;;;18.17;40.75
64616;BME280;51027;42.162;24.754;2024-03-17T13:39:44;99880.84;;;17.79;41.32
64616;BME280;51027;42.162;24.754;2024-03-17T13:42:09;99868.75;;;17.73;41.50
64616;BME280;51027;42.162;24.754;2024-03-17T13:44:35;99854.00;;;18.60;40.74
64616;BME280;51027;42.162;24.754;2024-03-17T13:47:00;99870.38;;;18.28;41.19
64616;BME280;51027;42.162;24.754;2024-03-17T13:49:31;99866.69;;;18.43;41.27
64616;BME280;51027;42.162;24.754;2024-03-17T13:51:56;99854.25;;;18.17;42.31
64616;BME280;51027;42.162;24.754;2024-03-17T13:54:22;99866.88;;;21.05;38.37
64616;BME280;51027;42.162;24.754;2024-03-17T13:56:48;99860.44;;;22.68;34.90
64616;BME280;51027;42.162;24.754;2024-03-17T13:59:14;99856.06;;;23.38;33.78
64616;BME280;51027;42.162;24.754;2024-03-17T14:01:41;99857.84;;;24.64;32.92
64616;BME280;51027;42.162;24.754;2024-03-17T14:04:13;99849.81;;;21.72;36.14
64616;BME280;51027;42.162;24.754;2024-03-17T14:06:40;99850.59;;;20.39;38.91
64616;BME280;51027;42.162;24.754;2024-03-17T14:09:05;99843.72;;;20.70;37.94
64616;BME280;51027;42.162;24.754;2024-03-17T14:11:34;99855.59;;;21.99;36.86
64616;BME280;51027;42.162;24.754;2024-03-17T14:14:00;99856.19;;;22.86;35.71
64616;BME280;51027;42.162;24.754;2024-03-17T14:16:25;99856.53;;;22.51;35.49
64616;BME280;51027;42.162;24.754;2024-03-17T14:18:50;99846.00;;;22.59;35.52
64616;BME280;51027;42.162;24.754;2024-03-17T14:21:16;99846.53;;;22.53;35.40
64616;BME280;51027;42.162;24.754;2024-03-17T14:23:42;99828.69;;;23.04;35.22
64616;BME280;51027;42.162;24.754;2024-03-17T14:26:10;99848.88;;;21.94;35.98
64616;BME280;51027;42.162;24.754;2024-03-17T14:28:36;99848.22;;;21.04;36.98
64616;BME280;51027;42.162;24.754;2024-03-17T14:31:01;99847.41;;;19.88;39.04
64616;BME280;51027;42.162;24.754;2024-03-17T14:33:27;99830.34;;;19.17;40.09
64616;BME280;51027;42.162;24.754;2024-03-17T14:35:56;99829.22;;;18.96;40.63
64616;BME280;51027;42.162;24.754;2024-03-17T14:38:22;99840.28;;;19.15;40.85
64616;BME280;51027;42.162;24.754;2024-03-17T14:40:51;99842.25;;;18.88;41.48
64616;BME280;51027;42.162;24.754;2024-03-17T14:43:16;99801.41;;;18.24;42.53
64616;BME280;51027;42.162;24.754;2024-03-17T14:45:42;99815.38;;;17.75;42.94
64616;BME280;51027;42.162;24.754;2024-03-17T14:48:07;99832.78;;;17.80;43.97
64616;BME280;51027;42.162;24.754;2024-03-17T14:50:35;99834.94;;;17.47;44.81
64616;BME280;51027;42.162;24.754;2024-03-17T14:53:01;99821.28;;;17.66;44.73
64616;BME280;51027;42.162;24.754;2024-03-17T14:55:26;99833.28;;;17.73;44.50
64616;BME280;51027;42.162;24.754;2024-03-17T14:57:52;99824.16;;;17.63;45.36
64616;BME280;51027;42.162;24.754;2024-03-17T15:00:17;99825.41;;;17.57;45.58
64616;BME280;51027;42.162;24.754;2024-03-17T15:02:46;99816.38;;;17.33;45.83
64616;BME280;51027;42.162;24.754;2024-03-17T15:05:13;99823.88;;;17.26;46.27
64616;BME280;51027;42.162;24.754;2024-03-17T15:07:40;99822.44;;;17.08;46.10
64616;BME280;51027;42.162;24.754;2024-03-17T15:10:06;99816.63;;;17.01;46.43
64616;BME280;51027;42.162;24.754;2024-03-17T15:12:32;99817.38;;;17.03;46.99
64616;BME280;51027;42.162;24.754;2024-03-17T15:14:57;99816.16;;;17.09;46.88
64616;BME280;51027;42.162;24.754;2024-03-17T15:17:23;99818.06;;;16.92;47.52
64616;BME280;51027;42.162;24.754;2024-03-17T15:19:48;99795.38;;;16.73;46.88
64616;BME280;51027;42.162;24.754;2024-03-17T15:22:14;99824.44;;;16.90;47.13
64616;BME280;51027;42.162;24.754;2024-03-17T15:24:39;99811.91;;;16.92;46.98
64616;BME280;51027;42.162;24.754;2024-03-17T15:27:05;99820.53;;;16.95;47.08
64616;BME280;51027;42.162;24.754;2024-03-17T15:29:31;99772.41;;;16.72;46.89
64616;BME280;51027;42.162;24.754;2024-03-17T15:31:56;99811.81;;;16.79;47.62
64616;BME280;51027;42.162;24.754;2024-03-17T15:34:25;99810.00;;;16.80;47.98
64616;BME280;51027;42.162;24.754;2024-03-17T15:36:50;99810.50;;;16.72;48.35
64616;BME280;51027;42.162;24.754;2024-03-17T15:39:15;99760.78;;;16.44;48.70
64616;BME280;51027;42.162;24.754;2024-03-17T15:41:41;99819.22;;;16.74;48.29
64616;BME280;51027;42.162;24.754;2024-03-17T15:44:07;99816.19;;;16.66;48.88
64616;BME280;51027;42.162;24.754;2024-03-17T15:46:32;99811.13;;;16.61;48.63
64616;BME280;51027;42.162;24.754;2024-03-17T15:48:58;99808.56;;;16.60;48.71
64616;BME280;51027;42.162;24.754;2024-03-17T15:51:24;99814.25;;;16.54;49.17
64616;BME280;51027;42.162;24.754;2024-03-17T15:53:50;99766.78;;;16.19;49.30
64616;BME280;51027;42.162;24.754;2024-03-17T15:56:16;99816.56;;;16.46;49.48
64616;BME280;51027;42.162;24.754;2024-03-17T15:58:42;99808.84;;;16.41;50.38
64616;BME280;51027;42.162;24.754;2024-03-17T16:01:08;99814.34;;;16.38;49.31
64616;BME280;51027;42.162;24.754;2024-03-17T16:03:37;99812.16;;;16.30;50.07
64616;BME280;51027;42.162;24.754;2024-03-17T16:06:11;99818.13;;;16.34;49.91
64616;BME280;51027;42.162;24.754;2024-03-17T16:08:39;99825.75;;;16.40;49.43
64616;BME280;51027;42.162;24.754;2024-03-17T16:11:06;99828.41;;;16.40;49.74
64616;BME280;51027;42.162;24.754;2024-03-17T16:13:44;99826.97;;;16.34;49.73
64616;BME280;51027;42.162;24.754;2024-03-17T16:16:14;99819.47;;;16.27;50.05
64616;BME280;51027;42.162;24.754;2024-03-17T16:18:41;99811.50;;;16.27;50.09
64616;BME280;51027;42.162;24.754;2024-03-17T16:21:12;99791.16;;;16.11;50.18
64616;BME280;51027;42.162;24.754;2024-03-17T16:23:43;99826.59;;;16.26;50.16
64616;BME280;51027;42.162;24.754;2024-03-17T16:26:10;99827.72;;;16.22;49.94
64616;BME280;51027;42.162;24.754;2024-03-17T16:28:36;99836.31;;;16.11;51.16
64616;BME280;51027;42.162;24.754;2024-03-17T16:31:02;99829.41;;;16.09;51.43
64616;BME280;51027;42.162;24.754;2024-03-17T16:33:28;99831.84;;;15.98;52.09
64616;BME280;51027;42.162;24.754;2024-03-17T16:35:55;99833.22;;;15.89;52.19
64616;BME280;51027;42.162;24.754;2024-03-17T16:38:23;99834.44;;;15.83;51.98
64616;BME280;51027;42.162;24.754;2024-03-17T16:40:49;99847.56;;;15.87;52.16
64616;BME280;51027;42.162;24.754;2024-03-17T16:49:03;99850.22;;;15.87;53.02
64616;BME280;51027;42.162;24.754;2024-03-17T16:51:31;99834.91;;;15.76;53.53
64616;BME280;51027;42.162;24.754;2024-03-17T16:53:57;99851.09;;;15.71;53.99
64616;BME280;51027;42.162;24.754;2024-03-17T16:56:23;99836.38;;;15.66;53.61
64616;BME280;51027;42.162;24.754;2024-03-17T16:58:48;99839.81;;;15.68;53.82
64616;BME280;51027;42.162;24.754;2024-03-17T17:01:13;99846.31;;;15.62;54.12
64616;BME280;51027;42.162;24.754;2024-03-17T17:03:40;99855.72;;;15.68;54.29
64616;BME280;51027;42.162;24.754;2024-03-17T17:06:06;99847.47;;;15.72;54.54
64616;BME280;51027;42.162;24.754;2024-03-17T17:08:31;99822.41;;;15.62;54.76
64616;BME280;51027;42.162;24.754;2024-03-17T17:10:56;99863.94;;;15.79;54.50
64616;BME280;51027;42.162;24.754;2024-03-17T17:13:23;99867.41;;;15.65;54.01
64616;BME280;51027;42.162;24.754;2024-03-17T17:16:02;99844.06;;;15.54;53.99
64616;BME280;51027;42.162;24.754;2024-03-17T17:18:54;99862.31;;;15.76;54.59
64616;BME280;51027;42.162;24.754;2024-03-17T17:21:29;99867.97;;;15.54;55.11
64616;BME280;51027;42.162;24.754;2024-03-17T17:23:55;99868.66;;;15.58;54.97
64616;BME280;51027;42.162;24.754;2024-03-17T17:26:28;99867.88;;;15.56;55.22
64616;BME280;51027;42.162;24.754;2024-03-17T17:29:23;99873.56;;;15.34;55.89
64616;BME280;51027;42.162;24.754;2024-03-17T17:32:18;99872.00;;;15.30;56.27
64616;BME280;51027;42.162;24.754;2024-03-17T17:34:44;99871.13;;;15.30;56.31
64616;BME280;51027;42.162;24.754;2024-03-17T17:37:10;99876.81;;;15.23;55.76
64616;BME280;51027;42.162;24.754;2024-03-17T17:39:37;99885.34;;;15.13;56.60
64616;BME280;51027;42.162;24.754;2024-03-17T17:42:07;99871.31;;;15.26;56.35
64616;BME280;51027;42.162;24.754;2024-03-17T17:44:39;99876.34;;;15.31;56.48
64616;BME280;51027;42.162;24.754;2024-03-17T17:47:08;99872.41;;;15.38;56.27
64616;BME280;51027;42.162;24.754;2024-03-17T17:49:34;99876.03;;;15.37;56.78
64616;BME280;51027;42.162;24.754;2024-03-17T17:52:02;99879.72;;;15.35;57.23
64616;BME280;51027;42.162;24.754;2024-03-17T17:54:31;99871.50;;;15.23;57.30
64616;BME280;51027;42.162;24.754;2024-03-17T17:57:03;99876.81;;;15.23;57.25
64616;BME280;51027;42.162;24.754;2024-03-17T17:59:32;99872.00;;;15.30;57.62